Silver Bay, MN

8:47 AM CDT on July 29, 2014 (GMT -0500)
Ely Municipal (KELO) Elev 1453 ft | 47.82 °N, 91.83 °W | Change Station

Current weather conditions updated 14 minutes ago

Scattered Clouds
Scattered Clouds
63 °F
Feels Like 63 °F
N
6
Wind Variable Wind from WNW

Today is forecast to be nearly the same temperature as yesterday. Afternoon showers and thunderstorms.

Today
High -- | Low -- °F
--% Chance of Precip.
Yesterday
High -- | Low -- °F
Precip. -- in
5:39 AM 8:42 PM
Waxing Crescent, 6% visible
Pressure 30.07 in
Visibility 10.0 miles
Clouds Scattered Clouds 11000 ft
Dew Point 55 °F
Humidity 77%
Rainfall 0.00 in
Snow Depth Not available.
UV 2 out of 12
Pollen 5.60 out of 12
Air Quality Not available.
Flu Activity Not available.
METAR KELO 291333Z AUTO 30005KT 10SM SCT110 17/13 A3007 RMK AO2

More Conditions Fewer Conditions

Pressure 30.07 in
Visibility 10.0 miles
Clouds Scattered Clouds 11000 ft
Dew Point 55 °F
Humidity 77%
Rainfall 0.00 in
Snow Depth Not available.
UV 2 out of 12
Pollen 5.60 out of 12
Air Quality Not available.
Flu Activity Not available.
METAR KELO 291333Z AUTO 30005KT 10SM SCT110 17/13 A3007 RMK AO2

More Conditions Fewer Conditions

10-Day Weather Forecast

Almanac

Astronomy

Jul. 29, 2014 Rise Set
Actual Time 5:39 AM CDT 8:42 PM CDT
Civil Twilight 5:03 AM CDT 9:18 PM CDT
Nautical Twilight 4:16 AM CDT 10:05 PM CDT
Astronomical Twilight 3:19 AM CDT 11:01 PM CDT
Moon 8:30 AM CDT 9:38 PM CDT
Length of Visible Light 16h 15m
Length of Day
15h 02m
Tomorrow will be 2m 32s shorter.
Waxing Crescent, 6% of the Moon is Illuminated
Today
Waxing Crescent
Aug 3
First Quarter
Aug 10
Full
Aug 17
Last Quarter
Aug 25
New

Today's Extremes

State Highs State Lows

Community

WunderPhotos

Upload Photos

1,738,728 photos uploaded!

Nearby

Snow Depth

Station Depth Elevation
No new snow has been reported.

Earthquake Activity

City Distance Mag. Time & Date
No recent earthquake activity has been reported nearby.
Minimum magnitude displayed is 2.5.

Coastal Water Temperatures

Place Temperature
No Stations Reporting

Nearby Weather Stations

Station Location Temp. Dew Point Humidity Wind Precip. Elev Updated Type
HADS SILVER BAY , Silver Bay, MN 55 °F - - SSW  at  14 mph 0.00 in / hr 640 ft 7:40 AM CDT MADIS
Silver Creek - Town Rd, Lake County, MN 67.3 °F 58 °F 71% WNW  at  2.3 mph 0.00 in / hr 985 ft 8:47 AM CDT Rapid Fire
Cross River, Schroeder, MN 64.7 °F 59 °F 81% NW  at  13.0 mph 0.00 in / hr 725 ft 8:47 AM CDT Rapid Fire
RAWS ISABELLA MN, Isabella, MN 58 °F 54 °F 86% WNW  at  4 mph 0.00 in / hr 1990 ft 8:04 AM CDT MADIS

Show More Stations Show Fewer Stations